Terminal Aerodrome Forecast
Issued by NWS

Home | Current Version | Previous Version | Text Only | Print | Product List | Glossary On
Versions: 1 2 3 4 5 6 7 8 9 10 11 12 13 14 15 16 17 18
581
FTUS46 KMFR 260538
TAFOTH
TAF
KOTH 260538Z 2606/2706 35009KT 6SM BR OVC006
     FM261200 36008KT 1SM BR OVC002
     FM261700 36013G20KT P6SM OVC006
     FM262000 36024G33KT P6SM OVC012
     FM270300 36016G26KT 5SM BR OVC004=

USA.gov is the U.S. government's official web portal to all federal, state and local government web resources and services.